메인 페이지
METAR-TAF:

METAR-TAF

공항 :

브라질리아 국제공항

브라질리아, 브라질 연방구, 브라질

위도: 15-52S, 경도: 047-56W, 고도: 1061m

현재 날씨관측

예보는 48분 전, 12:00시(UTC)에 발표되었습니다.
무풍
온도 19°C
습도 56%
기압 1024 hPa
시정 10km 이상
1500m 미만 상공 구름 및 적란운 없음

METAR: SBBR 241200Z 00000KT CAVOK 19/10 Q1024

시각: 09:48 (12:48 UTC)

예보

예보는 2 시간 48분 전, 10:00시(UTC)에 발표되었습니다.
예보 대상 시간: 24일 12시부터 25일 12시까지 (UTC)
동북동13kt
시정 10km 이상
1500m 미만 상공 구름 및 적란운 없음
24일 1600시부터 (UTC)
동북동10kt
시정 10km 이상
고도 4000ft 상공 구름 보통
24일 2200시부터 (UTC)
kt
시정 10km 이상
1500m 미만 상공 구름 및 적란운 없음

TAF: SBBR 241000Z 2412/2512 07013KT CAVOK TX26/2419Z TN12/2508Z FM241600 07010KT 9999 SCT040 FM242200 00000KT CAVOK RMK PDF

4,000개 이상의 공항 관측 자료 및 예보 (METAR 및 TAF 보고).

지도상에서 검색 가능한 기상관측소가 노란 점과 빨간 점으로 표시되어 있습니다.

기상관측소 명을 보려면 표시 위로 마우스를 이동하세요.

날씨 관측과 예보를 보려면 클릭하세요.

지도 변경 : 확대하려면 엑스 표시가 있는 녹색 버튼, 축소하려면 빼기 표시가 있는 녹색 버튼, 다음 페이지의 지도를 보려면 녹색 화살표를 클릭하세요.


METAR-TAF: